F/V Oceanie — FVBW — position and weather

sailwx.info

Track history (hours):
 
Tides and Currents Weather Stations Pressure Air Temp Water Temp Dewpoint Dewpoint Depression Visibility Wind Speed Wind Dir Waves Ship Positions

F/V Oceanie

Last reported at 2015-Apr-18 02:18 UTC. Time now 2015-Apr-18 16:40 UTC.
Position N 47°44' W 003°22'.

Length 16 m.

Type: Fishing. MMSI: 228370000.

Date/timePositionNaut miles runAvg speedWind from/ knotsBaromVisibWave heightAir tempDewpointWater temp
2015-Apr-18 02:18N 47°44' W 003°22'0 0.0
2015-Apr-18 01:33N 47°44' W 003°22'0 0.0
2015-Apr-18 00:33N 47°44' W 003°22'4 4.0
2015-Apr-17 23:33N 47°40' W 003°22'9 9.3
2015-Apr-17 22:33N 47°30' W 003°21'50 1.3
2015-Apr-16 08:31N 46°42' W 003°01'7 3.6
2015-Apr-16 06:33N 46°47' W 003°08'4 3.7
2015-Apr-16 05:33N 46°49' W 003°13'7 7.1
2015-Apr-16 04:33N 46°56' W 003°16'9 9.4
2015-Apr-16 03:33N 47°05' W 003°17'9 9.4
2015-Apr-16 02:33N 47°14' W 003°19'9 9.3
2015-Apr-16 01:33N 47°24' W 003°20'9 9.3
2015-Apr-16 00:33N 47°33' W 003°21'9 9.1
2015-Apr-15 23:33N 47°42' W 003°22'2 1.7
2015-Apr-15 22:33N 47°44' W 003°22'4 3.9
2015-Apr-15 21:33N 47°41' W 003°26'9 9.3
2015-Apr-15 20:33N 47°36' W 003°38'6 5.9
2015-Apr-15 19:27N 47°33' W 003°46'3 3.9
2015-Apr-15 18:33N 47°31' W 003°50'4 3.5
2015-Apr-15 17:32N 47°30' W 003°55'9 1.5
2015-Apr-15 11:30N 47°30' W 004°09'4 1.2
2015-Apr-15 08:05N 47°29' W 004°03'4 2.3
2015-Apr-15 06:32N 47°32' W 004°02'4 1.9
2015-Apr-15 04:33N 47°28' W 004°02'4 4.4
2015-Apr-15 03:33N 47°28' W 003°56'6 4.5
2015-Apr-15 02:13N 47°30' W 003°47'6 9.2
2015-Apr-15 01:33N 47°34' W 003°40'9 9.2
2015-Apr-15 00:33N 47°40' W 003°30'7 6.7
2015-Apr-14 23:33N 47°44' W 003°22'3 3.3
2015-Apr-14 22:33N 47°41' W 003°25'9 9.1
2015-Apr-14 21:33N 47°38' W 003°37'21 4.8
2015-Apr-14 17:17N 47°31' W 004°06'1 0.1
2015-Apr-14 09:29N 47°31' W 004°05'3 3.0
2015-Apr-14 08:33N 47°31' W 004°01'2 2.0
2015-Apr-14 07:31N 47°29' W 003°60'2 0.2
2015-Apr-13 20:33N 47°27' W 004°00'8 1.0
2015-Apr-13 13:10N 47°31' W 003°50'3 4.1
2015-Apr-13 12:30N 47°33' W 003°47'7 7.3
2015-Apr-13 11:33N 47°36' W 003°38'9 8.9
2015-Apr-13 10:33N 47°41' W 003°26'4 4.3
2015-Apr-13 09:33N 47°44' W 003°22'  
2015-Apr-10 23:34N 47°44' W 003°22'2 2.5
2015-Apr-10 22:33N 47°41' W 003°23'9 9.0
2015-Apr-10 21:32N 47°38' W 003°36'19 1.1
2015-Apr-10 04:29N 47°28' W 003°60'4 4.0
2015-Apr-10 03:34N 47°28' W 003°54'4 4.0
2015-Apr-10 02:31N 47°29' W 003°48'8 8.8
2015-Apr-10 01:34N 47°35' W 003°39'9 9.0
2015-Apr-10 00:33N 47°40' W 003°29'6 5.8
2015-Apr-09 23:33N 47°44' W 003°22'5 5.2
2015-Apr-09 22:33N 47°40' W 003°28'9 8.9
2015-Apr-09 21:33N 47°35' W 003°39'9 9.2
2015-Apr-09 20:33N 47°29' W 003°48'5 5.0
2015-Apr-09 19:32N 47°27' W 003°55'5 4.0
2015-Apr-09 18:16N 47°29' W 004°01'3 3.8
2015-Apr-09 17:32N 47°31' W 004°05'4 3.8
2015-Apr-09 16:34N 47°33' W 004°10'2 1.8
2015-Apr-09 15:33N 47°32' W 004°07'3 2.8
2015-Apr-09 14:21N 47°29' W 004°06'17 1.2
2015-Apr-09 01:04N 47°29' W 003°42'5 9.2
2015-Apr-09 00:29N 47°33' W 003°38'8 9.0
2015-Apr-08 23:34N 47°40' W 003°31'7 6.8
2015-Apr-08 22:33N 47°44' W 003°22'6 6.2
2015-Apr-08 21:32N 47°38' W 003°23'9 8.8
2015-Apr-08 20:33N 47°29' W 003°26'5 4.9
2015-Apr-08 19:32N 47°24' W 003°26'4 3.3
2015-Apr-08 18:25N 47°21' W 003°24'5 4.0
2015-Apr-08 17:06N 47°23' W 003°31'1 1.4
2015-Apr-08 16:11N 47°23' W 003°29'2 4.0
2015-Apr-08 15:34N 47°25' W 003°29'2 2.1
2015-Apr-08 14:28N 47°23' W 003°28'1 0.8
2015-Apr-08 13:30N 47°23' W 003°29'3 3.2
2015-Apr-08 12:32N 47°25' W 003°26'3 3.3
2015-Apr-08 11:32N 47°22' W 003°29'0 0.2
2015-Apr-08 10:08N 47°23' W 003°29'2 3.9
2015-Apr-08 09:33N 47°25' W 003°29'2 2.0
2015-Apr-08 08:28N 47°23' W 003°27'3 1.2
2015-Apr-08 06:15N 47°23' W 003°31'0 0.3
2015-Apr-08 05:32N 47°23' W 003°31'3 3.3
2015-Apr-08 04:30N 47°25' W 003°27'0 0.1
2015-Apr-08 03:32N 47°25' W 003°27'2 2.2
2015-Apr-08 02:33N 47°27' W 003°26'  
Track history (hours):
 
Tides and Currents Weather Stations Pressure Air Temp Water Temp Dewpoint Dewpoint Depression Visibility Wind Speed Wind Dir Waves Ship Positions

F/V Oceanie

Last reported at 2015-Apr-18 02:18 UTC. Time now 2015-Apr-18 16:40 UTC.
Position N 47°44' W 003°22'.

Length 16 m.

Type: Fishing. MMSI: 228370000.

Date/timePositionNaut miles runAvg speedWind from/ knotsBaromVisibWave heightAir tempDewpointWater temp
2015-Apr-18 02:18N 47°44' W 003°22'0 0.0
2015-Apr-18 01:33N 47°44' W 003°22'0 0.0
2015-Apr-18 00:33N 47°44' W 003°22'4 4.0
2015-Apr-17 23:33N 47°40' W 003°22'9 9.3
2015-Apr-17 22:33N 47°30' W 003°21'50 1.3
2015-Apr-16 08:31N 46°42' W 003°01'7 3.6
2015-Apr-16 06:33N 46°47' W 003°08'4 3.7
2015-Apr-16 05:33N 46°49' W 003°13'7 7.1
2015-Apr-16 04:33N 46°56' W 003°16'9 9.4
2015-Apr-16 03:33N 47°05' W 003°17'9 9.4
2015-Apr-16 02:33N 47°14' W 003°19'9 9.3
2015-Apr-16 01:33N 47°24' W 003°20'9 9.3
2015-Apr-16 00:33N 47°33' W 003°21'9 9.1
2015-Apr-15 23:33N 47°42' W 003°22'2 1.7
2015-Apr-15 22:33N 47°44' W 003°22'4 3.9
2015-Apr-15 21:33N 47°41' W 003°26'9 9.3
2015-Apr-15 20:33N 47°36' W 003°38'6 5.9
2015-Apr-15 19:27N 47°33' W 003°46'3 3.9
2015-Apr-15 18:33N 47°31' W 003°50'4 3.5
2015-Apr-15 17:32N 47°30' W 003°55'9 1.5
2015-Apr-15 11:30N 47°30' W 004°09'4 1.2
2015-Apr-15 08:05N 47°29' W 004°03'4 2.3
2015-Apr-15 06:32N 47°32' W 004°02'4 1.9
2015-Apr-15 04:33N 47°28' W 004°02'4 4.4
2015-Apr-15 03:33N 47°28' W 003°56'6 4.5
2015-Apr-15 02:13N 47°30' W 003°47'6 9.2
2015-Apr-15 01:33N 47°34' W 003°40'9 9.2
2015-Apr-15 00:33N 47°40' W 003°30'7 6.7
2015-Apr-14 23:33N 47°44' W 003°22'3 3.3
2015-Apr-14 22:33N 47°41' W 003°25'9 9.1
2015-Apr-14 21:33N 47°38' W 003°37'21 4.8
2015-Apr-14 17:17N 47°31' W 004°06'1 0.1
2015-Apr-14 09:29N 47°31' W 004°05'3 3.0
2015-Apr-14 08:33N 47°31' W 004°01'2 2.0
2015-Apr-14 07:31N 47°29' W 003°60'2 0.2
2015-Apr-13 20:33N 47°27' W 004°00'8 1.0
2015-Apr-13 13:10N 47°31' W 003°50'3 4.1
2015-Apr-13 12:30N 47°33' W 003°47'7 7.3
2015-Apr-13 11:33N 47°36' W 003°38'9 8.9
2015-Apr-13 10:33N 47°41' W 003°26'4 4.3
2015-Apr-13 09:33N 47°44' W 003°22'  
2015-Apr-10 23:34N 47°44' W 003°22'2 2.5
2015-Apr-10 22:33N 47°41' W 003°23'9 9.0
2015-Apr-10 21:32N 47°38' W 003°36'19 1.1
2015-Apr-10 04:29N 47°28' W 003°60'4 4.0
2015-Apr-10 03:34N 47°28' W 003°54'4 4.0
2015-Apr-10 02:31N 47°29' W 003°48'8 8.8
2015-Apr-10 01:34N 47°35' W 003°39'9 9.0
2015-Apr-10 00:33N 47°40' W 003°29'6 5.8
2015-Apr-09 23:33N 47°44' W 003°22'5 5.2
2015-Apr-09 22:33N 47°40' W 003°28'9 8.9
2015-Apr-09 21:33N 47°35' W 003°39'9 9.2
2015-Apr-09 20:33N 47°29' W 003°48'5 5.0
2015-Apr-09 19:32N 47°27' W 003°55'5 4.0
2015-Apr-09 18:16N 47°29' W 004°01'3 3.8
2015-Apr-09 17:32N 47°31' W 004°05'4 3.8
2015-Apr-09 16:34N 47°33' W 004°10'2 1.8
2015-Apr-09 15:33N 47°32' W 004°07'3 2.8
2015-Apr-09 14:21N 47°29' W 004°06'17 1.2
2015-Apr-09 01:04N 47°29' W 003°42'5 9.2
2015-Apr-09 00:29N 47°33' W 003°38'8 9.0
2015-Apr-08 23:34N 47°40' W 003°31'7 6.8
2015-Apr-08 22:33N 47°44' W 003°22'6 6.2
2015-Apr-08 21:32N 47°38' W 003°23'9 8.8
2015-Apr-08 20:33N 47°29' W 003°26'5 4.9
2015-Apr-08 19:32N 47°24' W 003°26'4 3.3
2015-Apr-08 18:25N 47°21' W 003°24'5 4.0
2015-Apr-08 17:06N 47°23' W 003°31'1 1.4
2015-Apr-08 16:11N 47°23' W 003°29'2 4.0
2015-Apr-08 15:34N 47°25' W 003°29'2 2.1
2015-Apr-08 14:28N 47°23' W 003°28'1 0.8
2015-Apr-08 13:30N 47°23' W 003°29'3 3.2
2015-Apr-08 12:32N 47°25' W 003°26'3 3.3
2015-Apr-08 11:32N 47°22' W 003°29'0 0.2
2015-Apr-08 10:08N 47°23' W 003°29'2 3.9
2015-Apr-08 09:33N 47°25' W 003°29'2 2.0
2015-Apr-08 08:28N 47°23' W 003°27'3 1.2
2015-Apr-08 06:15N 47°23' W 003°31'0 0.3
2015-Apr-08 05:32N 47°23' W 003°31'3 3.3
2015-Apr-08 04:30N 47°25' W 003°27'0 0.1
2015-Apr-08 03:32N 47°25' W 003°27'2 2.2
2015-Apr-08 02:33N 47°27' W 003°26'  

Dump ship's entire track history